createdAt,value
2023-04-22T00:00:44.291Z,12.64
2023-04-22T00:03:47.451Z,12.66
2023-04-22T00:06:52.156Z,12.62
2023-04-22T00:09:54.937Z,12.65
2023-04-22T00:12:57.758Z,12.64
2023-04-22T00:16:00.634Z,12.67
2023-04-22T00:19:03.593Z,12.68
2023-04-22T00:22:07.820Z,12.73
2023-04-22T00:25:10.795Z,12.66
2023-04-22T00:28:13.527Z,12.67
2023-04-22T00:31:16.421Z,12.66
2023-04-22T00:34:19.707Z,12.57
2023-04-22T00:37:24.533Z,12.58
2023-04-22T00:40:27.212Z,12.59
2023-04-22T00:43:29.932Z,12.55
2023-04-22T00:46:35.387Z,12.52
2023-04-22T00:49:38.575Z,12.57
2023-04-22T00:52:42.947Z,12.51
2023-04-22T00:55:45.683Z,12.48
2023-04-22T00:58:48.426Z,12.43
2023-04-22T01:01:51.775Z,12.36
2023-04-22T01:04:55.182Z,12.29
2023-04-22T01:07:59.835Z,12.30
2023-04-22T01:11:03.795Z,12.25
2023-04-22T01:14:06.636Z,12.26
2023-04-22T01:17:10.995Z,12.27
2023-04-22T01:20:14.062Z,12.23
2023-04-22T01:23:20.540Z,12.23
2023-04-22T01:26:23.431Z,12.15
2023-04-22T01:29:26.740Z,12.17
2023-04-22T01:32:30.850Z,12.10
2023-04-22T01:35:36.837Z,12.04
2023-04-22T01:38:41.240Z,12.04
2023-04-22T01:41:44.013Z,12.01
2023-04-22T01:44:46.782Z,12.01
2023-04-22T01:47:49.452Z,11.96
2023-04-22T01:50:52.411Z,11.88
2023-04-22T01:53:56.489Z,11.90
2023-04-22T01:56:59.437Z,11.84
2023-04-22T02:00:02.431Z,11.92
2023-04-22T02:03:05.228Z,11.86
2023-04-22T02:06:08.721Z,11.84
2023-04-22T02:09:12.755Z,11.79
2023-04-22T02:12:15.471Z,11.79
2023-04-22T02:15:18.225Z,11.77
2023-04-22T02:18:20.931Z,11.68
2023-04-22T02:21:23.737Z,11.69
2023-04-22T02:24:27.841Z,11.63
2023-04-22T02:27:30.598Z,11.69
2023-04-22T02:30:33.281Z,11.69
2023-04-22T02:33:36.437Z,11.69
2023-04-22T02:36:39.227Z,11.64
2023-04-22T02:39:43.239Z,11.54
2023-04-22T02:42:45.883Z,11.58
2023-04-22T02:45:48.572Z,11.59
2023-04-22T02:48:51.312Z,11.52
2023-04-22T02:51:53.990Z,11.46
2023-04-22T02:54:57.981Z,11.46
2023-04-22T02:58:00.672Z,11.47
2023-04-22T03:01:03.619Z,11.47
2023-04-22T03:04:06.366Z,11.42
2023-04-22T03:07:09.246Z,11.37
2023-04-22T03:10:13.389Z,11.38
2023-04-22T03:13:16.308Z,11.34
2023-04-22T03:16:19.277Z,11.32
2023-04-22T03:19:22.013Z,11.32
2023-04-22T03:22:24.723Z,11.28
2023-04-22T03:25:28.786Z,11.31
2023-04-22T03:28:31.537Z,11.26
2023-04-22T03:31:34.376Z,11.18
2023-04-22T03:34:37.480Z,11.16
2023-04-22T03:37:40.777Z,11.17
2023-04-22T03:40:44.967Z,11.20
2023-04-22T03:43:47.755Z,11.19
2023-04-22T03:46:50.631Z,11.22
2023-04-22T03:49:53.863Z,11.21
2023-04-22T03:52:56.647Z,11.20
2023-04-22T03:56:00.863Z,11.21
2023-04-22T03:59:03.608Z,11.21
2023-04-22T04:02:07.751Z,11.16
2023-04-22T04:05:12.160Z,11.15
2023-04-22T04:08:15.096Z,11.20
2023-04-22T04:11:19.244Z,11.17
2023-04-22T04:14:22.758Z,11.15
2023-04-22T04:17:26.070Z,11.13
2023-04-22T04:20:28.919Z,11.11
2023-04-22T04:23:32.206Z,11.11
2023-04-22T04:26:36.434Z,11.10
2023-04-22T04:29:39.778Z,11.11
2023-04-22T04:32:43.010Z,11.08
2023-04-22T04:35:45.911Z,11.01
2023-04-22T04:38:48.844Z,10.98
2023-04-22T04:41:55.094Z,10.97
2023-04-22T04:44:59.540Z,10.96
2023-04-22T04:48:02.686Z,10.96
2023-04-22T04:51:06.240Z,10.98
2023-04-22T04:54:08.996Z,10.99
2023-04-22T04:57:13.111Z,10.99
2023-04-22T05:00:16.104Z,11.04
2023-04-22T05:03:19.038Z,11.02
2023-04-22T05:06:21.940Z,10.94
2023-04-22T05:09:24.664Z,10.97
2023-04-22T05:12:28.843Z,11.00
2023-04-22T05:15:32.021Z,10.97
2023-04-22T05:18:34.762Z,10.92
2023-04-22T05:21:37.434Z,10.87
2023-04-22T05:24:40.115Z,10.96
2023-04-22T05:27:44.226Z,11.05
2023-04-22T05:30:46.875Z,11.04
2023-04-22T05:33:49.594Z,11.04
2023-04-22T05:36:52.591Z,11.10
2023-04-22T05:39:55.258Z,11.18
2023-04-22T05:42:59.484Z,11.32
2023-04-22T05:46:02.268Z,11.41
2023-04-22T05:49:05.039Z,11.45
2023-04-22T05:52:07.949Z,11.50
2023-04-22T05:55:10.958Z,11.56
2023-04-22T05:58:15.061Z,11.63
2023-04-22T06:01:17.848Z,11.74
2023-04-22T06:04:21.078Z,11.88
2023-04-22T06:07:24.196Z,12.01
2023-04-22T06:10:27.023Z,12.16
2023-04-22T06:13:31.067Z,12.31
2023-04-22T06:16:34.738Z,12.45
2023-04-22T06:19:38.349Z,12.63
2023-04-22T06:22:41.357Z,12.83
2023-04-22T06:25:44.594Z,12.95
2023-04-22T06:28:48.657Z,13.06
2023-04-22T06:31:51.712Z,13.16
2023-04-22T06:34:54.388Z,13.22
2023-04-22T06:37:57.080Z,13.33
2023-04-22T06:40:59.756Z,13.49
2023-04-22T06:44:03.877Z,13.66
2023-04-22T06:47:06.759Z,13.71
2023-04-22T06:50:10.726Z,13.70
2023-04-22T06:53:13.572Z,13.67
2023-04-22T06:56:16.573Z,13.74
2023-04-22T06:59:20.679Z,13.76
2023-04-22T07:02:23.910Z,13.89
2023-04-22T07:05:26.887Z,13.96
2023-04-22T07:08:29.728Z,14.01
2023-04-22T07:11:33.013Z,14.14
2023-04-22T07:14:38.070Z,14.29
2023-04-22T07:17:41.116Z,14.36
2023-04-22T07:20:44.033Z,14.35
2023-04-22T07:23:46.655Z,14.32
2023-04-22T07:26:49.464Z,14.45
2023-04-22T07:29:53.454Z,14.54
2023-04-22T07:32:56.317Z,14.68
2023-04-22T07:35:59.134Z,14.85
2023-04-22T07:39:01.756Z,15.06
2023-04-22T07:42:04.647Z,15.22
2023-04-22T07:45:09.877Z,15.37
2023-04-22T07:48:12.849Z,15.46
2023-04-22T07:51:15.836Z,15.54
2023-04-22T07:54:18.793Z,15.55
2023-04-22T07:57:22.702Z,15.54
2023-04-22T08:00:26.925Z,15.61
2023-04-22T08:03:29.866Z,15.67
2023-04-22T08:06:32.944Z,15.72
2023-04-22T08:09:35.841Z,15.77
2023-04-22T08:12:38.604Z,15.87
2023-04-22T08:15:42.755Z,15.93
2023-04-22T08:18:45.605Z,15.94
2023-04-22T08:21:48.506Z,15.93
2023-04-22T08:24:51.267Z,15.84
2023-04-22T08:27:54.081Z,15.86
2023-04-22T08:30:58.270Z,16.06
2023-04-22T08:34:00.924Z,16.33
2023-04-22T08:37:03.888Z,16.66
2023-04-22T08:40:08.191Z,17.02
2023-04-22T08:43:11.011Z,17.40
2023-04-22T08:46:16.772Z,17.74
2023-04-22T08:49:20.473Z,18.00
2023-04-22T08:52:23.365Z,18.25
2023-04-22T08:55:26.883Z,18.54
2023-04-22T08:58:31.016Z,18.81
2023-04-22T09:01:36.075Z,19.12
2023-04-22T09:04:38.902Z,19.34
2023-04-22T09:07:42.500Z,19.53
2023-04-22T09:10:45.237Z,19.74
2023-04-22T09:13:48.273Z,20.05
2023-04-22T09:16:52.391Z,20.20
2023-04-22T09:19:59.146Z,20.33
2023-04-22T09:23:04.934Z,20.37
2023-04-22T09:26:09.110Z,20.48
2023-04-22T09:29:15.837Z,20.47
2023-04-22T09:32:20.809Z,20.42
2023-04-22T09:35:31.913Z,20.24
2023-04-22T09:38:34.555Z,20.19
2023-04-22T09:41:38.759Z,20.25
2023-04-22T09:44:41.732Z,20.38
2023-04-22T09:47:47.627Z,20.57
2023-04-22T09:50:51.777Z,20.83
2023-04-22T09:54:08.935Z,21.17
2023-04-22T09:57:15.194Z,21.40
2023-04-22T10:00:18.689Z,21.47
2023-04-22T10:03:23.023Z,21.44
2023-04-22T10:06:25.875Z,21.47
2023-04-22T10:09:28.682Z,21.41
2023-04-22T10:12:35.833Z,21.37
2023-04-22T10:15:41.485Z,21.52
2023-04-22T10:18:46.334Z,21.71
2023-04-22T10:21:51.327Z,21.94
2023-04-22T10:24:56.078Z,22.04
2023-04-22T10:28:04.321Z,22.04
2023-04-22T10:31:08.212Z,22.22
2023-04-22T10:34:15.319Z,22.41
2023-04-22T10:37:20.767Z,22.56
2023-04-22T10:40:23.873Z,22.67
2023-04-22T10:43:42.267Z,22.73
2023-04-22T10:47:01.656Z,22.60
2023-04-22T10:50:18.880Z,22.39
2023-04-22T10:53:37.669Z,22.13
2023-04-22T10:57:04.578Z,22.18
2023-04-22T11:00:52.541Z,22.42
2023-04-22T11:04:23.369Z,22.61
2023-04-22T11:07:35.720Z,22.58
2023-04-22T11:10:44.159Z,22.82
2023-04-22T11:13:50.602Z,22.93
2023-04-22T11:16:53.960Z,22.94
2023-04-22T11:19:57.457Z,23.02
2023-04-22T11:23:01.553Z,23.08
2023-04-22T11:26:06.490Z,23.29
2023-04-22T11:29:09.784Z,23.58
2023-04-22T11:32:12.933Z,23.82
2023-04-22T11:35:22.034Z,23.75
2023-04-22T11:38:26.300Z,23.55
2023-04-22T11:41:29.973Z,23.27
2023-04-22T11:44:32.826Z,23.28
2023-04-22T11:47:36.606Z,23.49
2023-04-22T11:50:41.157Z,23.68
2023-04-22T11:53:52.318Z,23.62
2023-04-22T11:56:55.658Z,23.43
2023-04-22T11:59:59.878Z,23.27
2023-04-22T12:03:04.720Z,23.18
2023-04-22T12:06:07.784Z,23.22
2023-04-22T12:09:14.106Z,23.29
2023-04-22T12:12:16.777Z,23.35
2023-04-22T12:15:19.414Z,23.31
2023-04-22T12:18:30.018Z,23.22
2023-04-22T12:21:32.771Z,23.12
2023-04-22T12:24:36.800Z,23.42
2023-04-22T12:27:39.392Z,23.50
2023-04-22T12:30:42.248Z,23.77
2023-04-22T12:33:46.199Z,23.71
2023-04-22T12:36:48.914Z,23.59
2023-04-22T12:39:52.873Z,23.65
2023-04-22T12:42:55.574Z,23.64
2023-04-22T12:45:58.209Z,23.47
2023-04-22T12:49:01.241Z,23.27
2023-04-22T12:52:03.838Z,23.09
2023-04-22T12:55:09.117Z,23.03
2023-04-22T12:58:12.252Z,23.13
2023-04-22T13:01:14.936Z,23.30
2023-04-22T13:04:19.874Z,23.37
2023-04-22T13:07:22.685Z,23.22
2023-04-22T13:10:28.262Z,23.04
2023-04-22T13:13:30.911Z,22.83
2023-04-22T13:16:33.517Z,22.69
2023-04-22T13:19:36.396Z,22.58
2023-04-22T13:22:40.472Z,22.34
2023-04-22T13:25:44.462Z,22.31
2023-04-22T13:28:47.056Z,22.16
2023-04-22T13:31:49.718Z,22.11
2023-04-22T13:34:52.576Z,22.00
2023-04-22T13:37:55.288Z,21.84
2023-04-22T13:41:01.198Z,21.77
2023-04-22T13:44:05.423Z,21.64
2023-04-22T13:47:08.054Z,21.64
2023-04-22T13:50:11.631Z,21.60
2023-04-22T13:53:14.516Z,21.53
2023-04-22T13:56:18.503Z,21.52
2023-04-22T13:59:21.166Z,21.45
2023-04-22T14:02:23.936Z,21.37
2023-04-22T14:05:26.935Z,21.30
2023-04-22T14:08:29.814Z,21.25
2023-04-22T14:11:33.870Z,21.31
2023-04-22T14:14:36.535Z,21.32
2023-04-22T14:17:39.316Z,21.27
2023-04-22T14:20:43.073Z,21.14
2023-04-22T14:23:45.826Z,21.08
2023-04-22T14:26:49.798Z,21.12
2023-04-22T14:29:53.212Z,21.04
2023-04-22T14:32:55.893Z,21.00
2023-04-22T14:35:58.610Z,21.03
2023-04-22T14:39:01.258Z,21.17
2023-04-22T14:42:05.778Z,21.16
2023-04-22T14:45:09.216Z,21.27
2023-04-22T14:48:11.891Z,21.45
2023-04-22T14:51:14.539Z,21.58
2023-04-22T14:54:17.188Z,21.73
2023-04-22T14:57:21.151Z,21.65
2023-04-22T15:00:23.991Z,21.64
2023-04-22T15:03:26.904Z,21.49
2023-04-22T15:06:29.641Z,21.33
2023-04-22T15:09:32.843Z,21.27
2023-04-22T15:12:36.841Z,21.24
2023-04-22T15:15:39.575Z,21.15
2023-04-22T15:18:43.107Z,20.99
2023-04-22T15:21:46.714Z,20.86
2023-04-22T15:24:49.317Z,20.80
2023-04-22T15:27:56.398Z,20.81
2023-04-22T15:30:59.033Z,20.80
2023-04-22T15:34:01.663Z,20.77
2023-04-22T15:37:04.439Z,20.64
2023-04-22T15:40:09.947Z,20.57
2023-04-22T15:43:13.912Z,20.52
2023-04-22T15:46:16.541Z,20.51
2023-04-22T15:49:19.223Z,20.48
2023-04-22T15:52:21.824Z,20.47
2023-04-22T15:55:24.651Z,20.45
2023-04-22T15:58:32.391Z,20.48
2023-04-22T16:01:40.303Z,20.49
2023-04-22T16:04:43.303Z,20.52
2023-04-22T16:07:46.325Z,20.49
2023-04-22T16:10:49.010Z,20.47
2023-04-22T16:13:52.983Z,20.50
2023-04-22T16:16:55.748Z,20.51
2023-04-22T16:19:58.503Z,20.45
2023-04-22T16:23:01.241Z,20.48
2023-04-22T16:26:05.584Z,20.51
2023-04-22T16:29:09.557Z,20.45
2023-04-22T16:32:12.360Z,20.42
2023-04-22T16:35:14.950Z,20.38
2023-04-22T16:38:17.646Z,20.58
2023-04-22T16:41:21.536Z,20.58
2023-04-22T16:44:25.659Z,20.44
2023-04-22T16:47:28.353Z,20.42
2023-04-22T16:50:31.035Z,20.26
2023-04-22T16:53:33.771Z,20.19
2023-04-22T16:56:37.463Z,20.17
2023-04-22T16:59:41.637Z,20.14
2023-04-22T17:02:44.660Z,20.06
2023-04-22T17:05:47.287Z,19.96
2023-04-22T17:08:49.978Z,19.90
2023-04-22T17:11:52.611Z,19.85
2023-04-22T17:14:56.545Z,19.76
2023-04-22T17:17:59.268Z,19.71
2023-04-22T17:21:01.933Z,19.62
2023-04-22T17:24:05.827Z,19.58
2023-04-22T17:27:08.528Z,19.46
2023-04-22T17:30:13.447Z,19.36
2023-04-22T17:33:16.237Z,19.26
2023-04-22T17:36:20.081Z,19.09
2023-04-22T17:39:22.778Z,18.96
2023-04-22T17:42:38.905Z,18.88
2023-04-22T17:45:46.814Z,18.86
2023-04-22T17:48:49.427Z,18.82
2023-04-22T17:51:52.019Z,18.80
2023-04-22T17:54:54.722Z,18.78
2023-04-22T17:57:57.364Z,18.72
2023-04-22T18:01:01.392Z,18.64
2023-04-22T18:04:04.580Z,18.54
2023-04-22T18:07:07.311Z,18.45
2023-04-22T18:10:11.641Z,18.39
2023-04-22T18:13:14.470Z,18.24
2023-04-22T18:16:18.545Z,18.02
2023-04-22T18:19:21.302Z,17.81
2023-04-22T18:22:25.145Z,17.60
2023-04-22T18:25:28.195Z,17.49
2023-04-22T18:28:30.836Z,17.27
2023-04-22T18:31:34.806Z,17.15
2023-04-22T18:34:37.609Z,17.10
2023-04-22T18:37:40.231Z,17.18
2023-04-22T18:40:42.827Z,17.20
2023-04-22T18:43:47.081Z,17.35
2023-04-22T18:46:52.938Z,17.30
2023-04-22T18:49:55.561Z,17.29
2023-04-22T18:52:58.157Z,17.29
2023-04-22T18:56:00.911Z,17.23
2023-04-22T18:59:03.558Z,17.17
2023-04-22T19:02:08.363Z,17.16
2023-04-22T19:05:13.992Z,17.27
2023-04-22T19:08:17.163Z,17.24
2023-04-22T19:11:20.119Z,17.20
2023-04-22T19:14:22.751Z,17.12
2023-04-22T19:17:27.214Z,17.07
2023-04-22T19:20:29.984Z,17.03
2023-04-22T19:23:32.642Z,17.03
2023-04-22T19:26:35.533Z,16.96
2023-04-22T19:29:38.568Z,16.90
2023-04-22T19:32:43.094Z,16.77
2023-04-22T19:35:46.239Z,16.67
2023-04-22T19:38:48.948Z,16.68
2023-04-22T19:41:51.770Z,16.70
2023-04-22T19:44:54.749Z,16.65
2023-04-22T19:47:59.920Z,16.58
2023-04-22T19:51:04.417Z,16.53
2023-04-22T19:54:08.355Z,16.48
2023-04-22T19:57:12.815Z,16.46
2023-04-22T20:00:16.418Z,16.48
2023-04-22T20:03:22.585Z,16.54
2023-04-22T20:06:25.707Z,16.49
2023-04-22T20:09:29.015Z,16.59
2023-04-22T20:12:32.231Z,16.54
2023-04-22T20:15:35.289Z,16.55
2023-04-22T20:18:39.848Z,16.57
2023-04-22T20:21:42.922Z,16.59
2023-04-22T20:24:46.654Z,16.57
2023-04-22T20:27:49.659Z,16.51
2023-04-22T20:30:52.664Z,16.56
2023-04-22T20:33:57.253Z,16.63
2023-04-22T20:37:02.066Z,16.58
2023-04-22T20:40:08.187Z,16.52
2023-04-22T20:43:11.226Z,16.48
2023-04-22T20:46:14.136Z,16.35
2023-04-22T20:49:18.417Z,16.26
2023-04-22T20:52:21.118Z,16.21
2023-04-22T20:55:24.019Z,16.17
2023-04-22T20:58:28.021Z,16.11
2023-04-22T21:01:31.386Z,16.03
2023-04-22T21:04:36.354Z,15.90
2023-04-22T21:07:40.684Z,15.85
2023-04-22T21:10:44.026Z,15.85
2023-04-22T21:13:47.472Z,15.82
2023-04-22T21:16:56.274Z,15.73
2023-04-22T21:20:02.676Z,15.71
2023-04-22T21:23:07.773Z,15.71
2023-04-22T21:26:11.384Z,15.62
2023-04-22T21:29:14.663Z,15.60
2023-04-22T21:32:20.102Z,15.49
2023-04-22T21:35:24.648Z,15.46
2023-04-22T21:38:27.516Z,15.43
2023-04-22T21:41:30.253Z,15.42
2023-04-22T21:44:33.120Z,15.40
2023-04-22T21:47:35.940Z,15.42
2023-04-22T21:50:39.980Z,15.41
2023-04-22T21:53:42.774Z,15.39
2023-04-22T21:56:45.610Z,15.46
2023-04-22T21:59:48.298Z,15.49
2023-04-22T22:02:52.437Z,15.53
2023-04-22T22:05:56.796Z,15.59
2023-04-22T22:08:59.678Z,15.61
2023-04-22T22:12:02.923Z,15.64
2023-04-22T22:15:08.558Z,15.64
2023-04-22T22:18:11.300Z,15.63
2023-04-22T22:21:15.269Z,15.61
2023-04-22T22:24:18.016Z,15.58
2023-04-22T22:27:20.776Z,15.60
2023-04-22T22:30:23.456Z,15.59
2023-04-22T22:33:26.232Z,15.62
2023-04-22T22:36:30.303Z,15.60
2023-04-22T22:39:33.128Z,15.56
2023-04-22T22:42:36.117Z,15.58
2023-04-22T22:45:38.933Z,15.66
2023-04-22T22:48:41.766Z,15.73
2023-04-22T22:51:45.935Z,15.70
2023-04-22T22:54:49.936Z,15.70
2023-04-22T22:57:52.602Z,15.76
2023-04-22T23:00:55.392Z,15.84
2023-04-22T23:03:58.397Z,15.89
2023-04-22T23:07:02.644Z,15.85
2023-04-22T23:10:06.451Z,15.88
2023-04-22T23:13:09.152Z,15.94
2023-04-22T23:16:12.097Z,15.83
2023-04-22T23:19:16.983Z,15.81
2023-04-22T23:22:21.579Z,15.76
2023-04-22T23:25:25.066Z,15.72
2023-04-22T23:28:28.372Z,15.64
2023-04-22T23:31:33.104Z,15.68
2023-04-22T23:34:36.682Z,15.64
2023-04-22T23:37:44.457Z,15.60
2023-04-22T23:40:47.281Z,15.53
2023-04-22T23:43:50.064Z,15.54
2023-04-22T23:46:52.936Z,15.63
2023-04-22T23:49:55.785Z,15.74
2023-04-22T23:52:59.865Z,15.67
2023-04-22T23:56:03.032Z,15.68
2023-04-22T23:59:07.237Z,15.66
